sensor_id;sensor_type;location;lat;lon;timestamp;P1;P2;P0
62599;PMS7003;48671;48.922;2.346;2022-12-01T00:00:45;106.25;77.50;61.00
62599;PMS7003;48671;48.922;2.346;2022-12-01T00:03:10;92.50;65.00;44.00
62599;PMS7003;48671;48.922;2.346;2022-12-01T00:05:36;78.75;53.75;34.75
62599;PMS7003;48671;48.922;2.346;2022-12-01T00:08:01;83.67;56.33;38.67
62599;PMS7003;48671;48.922;2.346;2022-12-01T00:10:28;102.00;73.80;58.20
62599;PMS7003;48671;48.922;2.346;2022-12-01T00:12:55;99.33;71.67;56.00
62599;PMS7003;48671;48.922;2.346;2022-12-01T00:15:22;70.75;44.50;26.50
62599;PMS7003;48671;48.922;2.346;2022-12-01T00:17:50;69.50;43.75;25.25
62599;PMS7003;48671;48.922;2.346;2022-12-01T00:20:15;58.00;32.00;9.50
62599;PMS7003;48671;48.922;2.346;2022-12-01T00:22:42;47.40;15.60;0.00
62599;PMS7003;48671;48.922;2.346;2022-12-01T00:25:08;62.20;29.00;7.20
62599;PMS7003;48671;48.922;2.346;2022-12-01T00:27:33;57.25;16.50;0.00
62599;PMS7003;48671;48.922;2.346;2022-12-01T00:29:59;54.75;19.50;0.00
62599;PMS7003;48671;48.922;2.346;2022-12-01T00:32:24;47.75;13.00;0.00
62599;PMS7003;48671;48.922;2.346;2022-12-01T00:34:49;42.33;11.33;0.00
62599;PMS7003;48671;48.922;2.346;2022-12-01T00:37:15;43.67;11.33;0.00
62599;PMS7003;48671;48.922;2.346;2022-12-01T00:39:40;48.50;12.00;0.00
62599;PMS7003;48671;48.922;2.346;2022-12-01T00:42:05;43.00;11.50;0.00
62599;PMS7003;48671;48.922;2.346;2022-12-01T00:44:30;50.00;17.33;0.00
62599;PMS7003;48671;48.922;2.346;2022-12-01T00:46:56;43.33;12.33;0.00
62599;PMS7003;48671;48.922;2.346;2022-12-01T00:49:21;45.33;15.00;0.00
62599;PMS7003;48671;48.922;2.346;2022-12-01T00:51:47;41.67;10.33;0.00
62599;PMS7003;48671;48.922;2.346;2022-12-01T00:54:12;68.00;32.67;12.33
62599;PMS7003;48671;48.922;2.346;2022-12-01T00:56:37;73.50;40.00;16.50
62599;PMS7003;48671;48.922;2.346;2022-12-01T00:59:02;85.33;58.33;38.67
62599;PMS7003;48671;48.922;2.346;2022-12-01T01:01:28;86.00;53.75;37.50
62599;PMS7003;48671;48.922;2.346;2022-12-01T01:03:53;85.33;57.00;40.00
62599;PMS7003;48671;48.922;2.346;2022-12-01T01:06:18;97.33;70.00;51.33
62599;PMS7003;48671;48.922;2.346;2022-12-01T01:08:44;101.00;70.67;56.67
62599;PMS7003;48671;48.922;2.346;2022-12-01T01:11:09;89.67;63.00;45.67
62599;PMS7003;48671;48.922;2.346;2022-12-01T01:13:35;106.25;79.50;64.00
62599;PMS7003;48671;48.922;2.346;2022-12-01T01:16:02;97.25;67.25;51.50
62599;PMS7003;48671;48.922;2.346;2022-12-01T01:18:42;95.00;66.75;49.50
62599;PMS7003;48671;48.922;2.346;2022-12-01T01:21:09;91.00;59.25;42.25
62599;PMS7003;48671;48.922;2.346;2022-12-01T01:23:36;93.75;64.50;47.25
62599;PMS7003;48671;48.922;2.346;2022-12-01T01:26:03;96.00;66.00;49.25
62599;PMS7003;48671;48.922;2.346;2022-12-01T01:28:31;97.75;66.50;47.50
62599;PMS7003;48671;48.922;2.346;2022-12-01T01:30:57;102.75;72.25;53.50
62599;PMS7003;48671;48.922;2.346;2022-12-01T01:33:22;96.75;67.50;48.75
62599;PMS7003;48671;48.922;2.346;2022-12-01T01:35:48;94.50;67.75;52.25
62599;PMS7003;48671;48.922;2.346;2022-12-01T01:38:13;97.00;70.00;51.33
62599;PMS7003;48671;48.922;2.346;2022-12-01T01:40:42;96.00;68.00;50.00
62599;PMS7003;48671;48.922;2.346;2022-12-01T01:43:15;95.50;68.75;51.50
62599;PMS7003;48671;48.922;2.346;2022-12-01T01:45:42;101.75;77.50;64.50
62599;PMS7003;48671;48.922;2.346;2022-12-01T01:48:09;103.50;77.50;58.50
62599;PMS7003;48671;48.922;2.346;2022-12-01T01:50:37;131.00;108.75;96.00
62599;PMS7003;48671;48.922;2.346;2022-12-01T01:53:04;136.50;114.00;102.25
62599;PMS7003;48671;48.922;2.346;2022-12-01T01:55:34;156.00;138.80;126.80
62599;PMS7003;48671;48.922;2.346;2022-12-01T01:58:03;152.00;129.75;116.00
62599;PMS7003;48671;48.922;2.346;2022-12-01T02:00:33;183.00;166.60;153.20
62599;PMS7003;48671;48.922;2.346;2022-12-01T02:02:59;195.50;177.00;163.00
62599;PMS7003;48671;48.922;2.346;2022-12-01T02:05:27;203.60;190.40;177.60
62599;PMS7003;48671;48.922;2.346;2022-12-01T02:07:55;206.00;189.80;173.80
62599;PMS7003;48671;48.922;2.346;2022-12-01T02:10:23;194.75;178.25;165.25
62599;PMS7003;48671;48.922;2.346;2022-12-01T02:20:35;217.40;200.80;184.20
62599;PMS7003;48671;48.922;2.346;2022-12-01T02:23:29;223.00;209.00;194.50
62599;PMS7003;48671;48.922;2.346;2022-12-01T02:37:32;243.60;227.60;217.00
62599;PMS7003;48671;48.922;2.346;2022-12-01T02:42:38;183.67;170.33;153.00
62599;PMS7003;48671;48.922;2.346;2022-12-01T02:48:00;239.25;228.00;212.75
62599;PMS7003;48671;48.922;2.346;2022-12-01T02:50:29;243.40;226.20;210.00
62599;PMS7003;48671;48.922;2.346;2022-12-01T02:52:59;241.00;223.50;208.50
62599;PMS7003;48671;48.922;2.346;2022-12-01T02:55:27;266.80;251.00;234.40
62599;PMS7003;48671;48.922;2.346;2022-12-01T02:57:52;249.00;232.33;217.00
62599;PMS7003;48671;48.922;2.346;2022-12-01T03:00:17;244.67;232.33;219.33
62599;PMS7003;48671;48.922;2.346;2022-12-01T03:02:50;238.20;231.20;220.80
62599;PMS7003;48671;48.922;2.346;2022-12-01T03:08:42;238.60;217.60;203.20
62599;PMS7003;48671;48.922;2.346;2022-12-01T03:11:25;230.25;210.75;198.75
62599;PMS7003;48671;48.922;2.346;2022-12-01T03:14:13;216.40;201.20;186.60
62599;PMS7003;48671;48.922;2.346;2022-12-01T03:16:45;179.20;156.80;143.80
62599;PMS7003;48671;48.922;2.346;2022-12-01T03:21:59;204.40;187.00;172.60
62599;PMS7003;48671;48.922;2.346;2022-12-01T03:24:31;181.80;165.40;152.80
62599;PMS7003;48671;48.922;2.346;2022-12-01T03:27:00;196.25;175.75;163.50
62599;PMS7003;48671;48.922;2.346;2022-12-01T03:29:35;196.00;173.75;161.25
62599;PMS7003;48671;48.922;2.346;2022-12-01T03:32:16;176.00;154.60;145.80
62599;PMS7003;48671;48.922;2.346;2022-12-01T03:35:03;171.50;152.25;139.25
62599;PMS7003;48671;48.922;2.346;2022-12-01T03:37:45;161.00;138.75;126.50
62599;PMS7003;48671;48.922;2.346;2022-12-01T03:40:16;162.50;141.50;131.00
62599;PMS7003;48671;48.922;2.346;2022-12-01T03:42:48;168.60;149.80;137.20
62599;PMS7003;48671;48.922;2.346;2022-12-01T03:45:42;143.25;121.75;114.00
62599;PMS7003;48671;48.922;2.346;2022-12-01T03:48:10;144.00;121.25;113.25
62599;PMS7003;48671;48.922;2.346;2022-12-01T03:50:37;175.25;150.00;136.75
62599;PMS7003;48671;48.922;2.346;2022-12-01T03:53:19;133.25;112.75;99.25
62599;PMS7003;48671;48.922;2.346;2022-12-01T03:55:55;148.75;125.00;114.75
62599;PMS7003;48671;48.922;2.346;2022-12-01T03:58:44;151.00;132.00;120.00
62599;PMS7003;48671;48.922;2.346;2022-12-01T04:01:12;150.00;127.00;114.50
62599;PMS7003;48671;48.922;2.346;2022-12-01T04:03:38;139.75;116.00;102.50
62599;PMS7003;48671;48.922;2.346;2022-12-01T04:06:03;125.50;104.25;92.50
62599;PMS7003;48671;48.922;2.346;2022-12-01T04:08:29;148.75;124.50;113.75
62599;PMS7003;48671;48.922;2.346;2022-12-01T04:10:55;160.25;135.25;125.25
62599;PMS7003;48671;48.922;2.346;2022-12-01T04:13:21;145.33;124.00;113.33
62599;PMS7003;48671;48.922;2.346;2022-12-01T04:15:50;139.25;118.00;106.75
62599;PMS7003;48671;48.922;2.346;2022-12-01T04:18:17;141.25;118.25;106.75
62599;PMS7003;48671;48.922;2.346;2022-12-01T04:20:44;137.75;112.75;103.00
62599;PMS7003;48671;48.922;2.346;2022-12-01T04:23:10;145.00;121.75;110.00
62599;PMS7003;48671;48.922;2.346;2022-12-01T04:26:02;138.00;111.50;98.50
62599;PMS7003;48671;48.922;2.346;2022-12-01T04:28:29;126.25;111.25;100.75
62599;PMS7003;48671;48.922;2.346;2022-12-01T04:30:54;138.00;116.50;105.25
62599;PMS7003;48671;48.922;2.346;2022-12-01T04:33:20;136.00;111.50;96.25
62599;PMS7003;48671;48.922;2.346;2022-12-01T04:35:46;131.00;112.00;97.25
62599;PMS7003;48671;48.922;2.346;2022-12-01T04:38:20;106.50;80.75;68.75
62599;PMS7003;48671;48.922;2.346;2022-12-01T04:40:45;134.75;114.50;103.25
62599;PMS7003;48671;48.922;2.346;2022-12-01T04:43:11;126.25;106.00;96.00
62599;PMS7003;48671;48.922;2.346;2022-12-01T04:45:36;119.50;96.00;84.25
62599;PMS7003;48671;48.922;2.346;2022-12-01T04:48:02;115.50;88.75;76.50
62599;PMS7003;48671;48.922;2.346;2022-12-01T04:50:27;111.50;83.00;73.50
62599;PMS7003;48671;48.922;2.346;2022-12-01T04:52:54;111.25;86.00;77.50
62599;PMS7003;48671;48.922;2.346;2022-12-01T04:55:19;111.25;87.25;75.00
62599;PMS7003;48671;48.922;2.346;2022-12-01T04:57:46;108.50;81.25;71.00
62599;PMS7003;48671;48.922;2.346;2022-12-01T05:00:11;109.75;83.50;74.00
62599;PMS7003;48671;48.922;2.346;2022-12-01T05:02:38;103.50;73.50;60.50
62599;PMS7003;48671;48.922;2.346;2022-12-01T05:05:07;110.25;80.25;68.75
62599;PMS7003;48671;48.922;2.346;2022-12-01T05:07:33;66.33;39.67;25.33
62599;PMS7003;48671;48.922;2.346;2022-12-01T05:09:58;107.25;81.25;70.00
62599;PMS7003;48671;48.922;2.346;2022-12-01T05:12:24;100.25;72.50;60.75
62599;PMS7003;48671;48.922;2.346;2022-12-01T05:14:49;114.75;88.25;78.75
62599;PMS7003;48671;48.922;2.346;2022-12-01T05:17:14;88.00;60.50;43.00
62599;PMS7003;48671;48.922;2.346;2022-12-01T05:19:39;102.25;71.00;57.50
62599;PMS7003;48671;48.922;2.346;2022-12-01T05:22:23;95.25;66.50;48.75
62599;PMS7003;48671;48.922;2.346;2022-12-01T05:24:49;104.75;73.50;63.75
62599;PMS7003;48671;48.922;2.346;2022-12-01T05:27:14;107.33;80.00;68.00
62599;PMS7003;48671;48.922;2.346;2022-12-01T05:29:39;95.25;65.50;48.00
62599;PMS7003;48671;48.922;2.346;2022-12-01T05:32:04;86.00;67.75;51.00
62599;PMS7003;48671;48.922;2.346;2022-12-01T05:34:30;105.00;76.00;62.50
62599;PMS7003;48671;48.922;2.346;2022-12-01T05:36:55;101.25;73.00;61.50
62599;PMS7003;48671;48.922;2.346;2022-12-01T05:39:20;86.50;56.25;41.75
62599;PMS7003;48671;48.922;2.346;2022-12-01T05:41:46;89.25;62.25;43.75
62599;PMS7003;48671;48.922;2.346;2022-12-01T05:44:11;101.33;70.33;57.67
62599;PMS7003;48671;48.922;2.346;2022-12-01T05:46:36;105.00;78.50;68.50
62599;PMS7003;48671;48.922;2.346;2022-12-01T05:49:02;99.25;71.00;57.75
62599;PMS7003;48671;48.922;2.346;2022-12-01T05:51:27;91.75;66.25;51.50
62599;PMS7003;48671;48.922;2.346;2022-12-01T05:53:52;107.25;79.00;68.00
62599;PMS7003;48671;48.922;2.346;2022-12-01T05:56:17;82.25;54.50;38.75
62599;PMS7003;48671;48.922;2.346;2022-12-01T05:58:43;100.75;73.50;61.50
62599;PMS7003;48671;48.922;2.346;2022-12-01T06:01:08;102.50;71.25;57.75
62599;PMS7003;48671;48.922;2.346;2022-12-01T06:03:34;88.25;62.50;47.25
62599;PMS7003;48671;48.922;2.346;2022-12-01T06:06:00;105.00;77.75;69.50
62599;PMS7003;48671;48.922;2.346;2022-12-01T06:08:25;100.75;71.25;58.25
62599;PMS7003;48671;48.922;2.346;2022-12-01T06:10:51;90.50;62.75;45.25
62599;PMS7003;48671;48.922;2.346;2022-12-01T06:13:16;107.50;76.50;64.75
62599;PMS7003;48671;48.922;2.346;2022-12-01T06:15:42;108.75;85.00;74.50
62599;PMS7003;48671;48.922;2.346;2022-12-01T06:18:07;89.00;62.25;46.50
62599;PMS7003;48671;48.922;2.346;2022-12-01T06:20:32;99.33;68.00;49.67
62599;PMS7003;48671;48.922;2.346;2022-12-01T06:22:58;113.00;89.75;80.25
62599;PMS7003;48671;48.922;2.346;2022-12-01T06:25:23;105.50;73.25;57.75
62599;PMS7003;48671;48.922;2.346;2022-12-01T06:27:48;106.75;83.25;71.50
62599;PMS7003;48671;48.922;2.346;2022-12-01T06:30:14;103.75;72.50;61.00
62599;PMS7003;48671;48.922;2.346;2022-12-01T06:32:39;106.50;79.25;71.75
62599;PMS7003;48671;48.922;2.346;2022-12-01T06:35:05;113.50;85.00;72.75
62599;PMS7003;48671;48.922;2.346;2022-12-01T06:37:31;108.25;77.00;65.25
62599;PMS7003;48671;48.922;2.346;2022-12-01T06:39:56;101.00;71.75;61.00
62599;PMS7003;48671;48.922;2.346;2022-12-01T06:42:21;106.75;79.75;70.75
62599;PMS7003;48671;48.922;2.346;2022-12-01T06:44:47;107.75;76.25;68.00
62599;PMS7003;48671;48.922;2.346;2022-12-01T06:47:12;105.25;78.25;68.00
62599;PMS7003;48671;48.922;2.346;2022-12-01T06:49:39;110.67;88.00;81.33
62599;PMS7003;48671;48.922;2.346;2022-12-01T06:52:05;107.67;78.33;69.67
62599;PMS7003;48671;48.922;2.346;2022-12-01T06:54:30;104.33;77.67;69.00
62599;PMS7003;48671;48.922;2.346;2022-12-01T06:56:55;101.75;72.25;61.00
62599;PMS7003;48671;48.922;2.346;2022-12-01T06:59:22;102.25;71.25;60.50
62599;PMS7003;48671;48.922;2.346;2022-12-01T07:01:48;103.75;72.50;62.25
62599;PMS7003;48671;48.922;2.346;2022-12-01T07:04:14;102.25;71.75;58.25
62599;PMS7003;48671;48.922;2.346;2022-12-01T07:06:39;105.75;76.75;65.00
62599;PMS7003;48671;48.922;2.346;2022-12-01T07:09:04;102.75;76.75;67.75
62599;PMS7003;48671;48.922;2.346;2022-12-01T07:11:29;105.00;73.00;60.25
62599;PMS7003;48671;48.922;2.346;2022-12-01T07:13:56;173.50;150.00;137.75
62599;PMS7003;48671;48.922;2.346;2022-12-01T07:16:22;110.75;84.50;77.25
62599;PMS7003;48671;48.922;2.346;2022-12-01T07:18:47;105.25;79.75;68.50
62599;PMS7003;48671;48.922;2.346;2022-12-01T07:21:13;103.75;73.50;64.50
62599;PMS7003;48671;48.922;2.346;2022-12-01T07:23:39;97.25;69.75;55.25
62599;PMS7003;48671;48.922;2.346;2022-12-01T07:26:14;91.67;62.67;47.00
62599;PMS7003;48671;48.922;2.346;2022-12-01T07:28:41;100.75;72.00;60.00
62599;PMS7003;48671;48.922;2.346;2022-12-01T07:31:09;97.75;68.50;54.00
62599;PMS7003;48671;48.922;2.346;2022-12-01T07:33:36;103.00;73.50;62.75
62599;PMS7003;48671;48.922;2.346;2022-12-01T07:36:03;106.50;82.75;72.75
62599;PMS7003;48671;48.922;2.346;2022-12-01T07:38:30;106.50;77.25;64.00
62599;PMS7003;48671;48.922;2.346;2022-12-01T07:41:12;102.50;68.00;53.25
62599;PMS7003;48671;48.922;2.346;2022-12-01T07:43:39;106.75;77.50;68.00
62599;PMS7003;48671;48.922;2.346;2022-12-01T07:46:12;98.00;69.00;55.50
62599;PMS7003;48671;48.922;2.346;2022-12-01T07:48:39;88.75;60.25;44.50
62599;PMS7003;48671;48.922;2.346;2022-12-01T07:51:05;103.00;73.50;65.00
62599;PMS7003;48671;48.922;2.346;2022-12-01T07:53:32;104.25;79.50;70.25
62599;PMS7003;48671;48.922;2.346;2022-12-01T07:55:58;96.00;68.00;53.00
62599;PMS7003;48671;48.922;2.346;2022-12-01T07:58:24;89.75;63.25;47.75
62599;PMS7003;48671;48.922;2.346;2022-12-01T08:00:50;93.00;64.25;48.25
62599;PMS7003;48671;48.922;2.346;2022-12-01T08:03:16;100.25;71.25;60.50
62599;PMS7003;48671;48.922;2.346;2022-12-01T08:05:41;100.50;70.25;56.00
62599;PMS7003;48671;48.922;2.346;2022-12-01T08:08:07;99.50;73.75;63.25
62599;PMS7003;48671;48.922;2.346;2022-12-01T08:10:32;102.75;74.25;63.75
62599;PMS7003;48671;48.922;2.346;2022-12-01T08:12:58;109.25;80.75;73.75
62599;PMS7003;48671;48.922;2.346;2022-12-01T08:15:23;97.50;69.25;56.25
62599;PMS7003;48671;48.922;2.346;2022-12-01T08:17:48;101.25;73.25;59.00
62599;PMS7003;48671;48.922;2.346;2022-12-01T08:20:14;105.00;74.50;65.75
62599;PMS7003;48671;48.922;2.346;2022-12-01T08:22:39;109.00;87.50;80.00
62599;PMS7003;48671;48.922;2.346;2022-12-01T08:25:05;107.50;84.00;76.75
62599;PMS7003;48671;48.922;2.346;2022-12-01T08:27:31;86.50;62.50;45.75
62599;PMS7003;48671;48.922;2.346;2022-12-01T08:29:56;95.75;67.00;52.50
62599;PMS7003;48671;48.922;2.346;2022-12-01T08:32:21;103.25;74.75;64.00
62599;PMS7003;48671;48.922;2.346;2022-12-01T08:34:47;104.50;78.25;66.25
62599;PMS7003;48671;48.922;2.346;2022-12-01T08:37:13;105.25;79.00;69.00
62599;PMS7003;48671;48.922;2.346;2022-12-01T08:39:38;102.50;71.75;60.75
62599;PMS7003;48671;48.922;2.346;2022-12-01T08:42:03;66.33;35.00;23.33
62599;PMS7003;48671;48.922;2.346;2022-12-01T08:44:29;105.00;79.50;68.00
62599;PMS7003;48671;48.922;2.346;2022-12-01T08:46:54;98.25;68.25;53.25
62599;PMS7003;48671;48.922;2.346;2022-12-01T08:49:20;100.50;72.00;61.75
62599;PMS7003;48671;48.922;2.346;2022-12-01T08:51:46;106.00;78.25;70.25
62599;PMS7003;48671;48.922;2.346;2022-12-01T08:54:12;98.50;70.75;59.25
62599;PMS7003;48671;48.922;2.346;2022-12-01T08:56:39;96.75;68.50;57.50
62599;PMS7003;48671;48.922;2.346;2022-12-01T08:59:05;102.50;72.50;62.00
62599;PMS7003;48671;48.922;2.346;2022-12-01T09:01:31;100.50;71.00;59.75
62599;PMS7003;48671;48.922;2.346;2022-12-01T09:03:58;98.75;69.75;59.25
62599;PMS7003;48671;48.922;2.346;2022-12-01T09:06:41;77.67;54.67;38.00
62599;PMS7003;48671;48.922;2.346;2022-12-01T09:09:10;105.50;78.75;68.25
62599;PMS7003;48671;48.922;2.346;2022-12-01T09:11:37;96.25;65.50;48.50
62599;PMS7003;48671;48.922;2.346;2022-12-01T09:14:03;106.00;74.33;61.00
62599;PMS7003;48671;48.922;2.346;2022-12-01T09:16:28;107.33;80.33;71.67
62599;PMS7003;48671;48.922;2.346;2022-12-01T09:18:54;97.00;68.25;55.00
62599;PMS7003;48671;48.922;2.346;2022-12-01T09:21:21;86.50;60.50;47.00
62599;PMS7003;48671;48.922;2.346;2022-12-01T09:23:48;98.50;70.00;56.00
62599;PMS7003;48671;48.922;2.346;2022-12-01T09:26:14;98.75;69.50;57.75
62599;PMS7003;48671;48.922;2.346;2022-12-01T09:28:46;92.75;65.50;51.25
62599;PMS7003;48671;48.922;2.346;2022-12-01T09:31:13;107.50;79.75;69.75
62599;PMS7003;48671;48.922;2.346;2022-12-01T09:33:39;97.75;68.50;55.00
62599;PMS7003;48671;48.922;2.346;2022-12-01T09:36:05;90.50;64.75;47.25
62599;PMS7003;48671;48.922;2.346;2022-12-01T09:38:33;101.25;71.00;58.75
62599;PMS7003;48671;48.922;2.346;2022-12-01T09:41:00;117.25;93.50;85.75
62599;PMS7003;48671;48.922;2.346;2022-12-01T09:43:32;107.00;78.25;70.50
62599;PMS7003;48671;48.922;2.346;2022-12-01T09:46:13;103.50;75.00;66.75
62599;PMS7003;48671;48.922;2.346;2022-12-01T09:48:43;101.25;75.50;67.75
62599;PMS7003;48671;48.922;2.346;2022-12-01T09:51:17;101.00;73.75;63.75
62599;PMS7003;48671;48.922;2.346;2022-12-01T09:53:45;109.50;85.00;72.25
62599;PMS7003;48671;48.922;2.346;2022-12-01T09:56:21;106.25;82.75;73.50
62599;PMS7003;48671;48.922;2.346;2022-12-01T09:58:48;112.75;92.50;83.75
62599;PMS7003;48671;48.922;2.346;2022-12-01T10:01:29;104.25;78.50;69.00
62599;PMS7003;48671;48.922;2.346;2022-12-01T10:03:58;125.25;99.50;92.75
62599;PMS7003;48671;48.922;2.346;2022-12-01T10:06:31;126.75;106.50;99.50
62599;PMS7003;48671;48.922;2.346;2022-12-01T10:11:54;104.00;93.75;90.50
62599;PMS7003;48671;48.922;2.346;2022-12-01T10:14:26;116.50;98.25;90.25
62599;PMS7003;48671;48.922;2.346;2022-12-01T10:19:57;135.75;115.50;108.50
62599;PMS7003;48671;48.922;2.346;2022-12-01T10:25:40;147.25;127.75;120.25
62599;PMS7003;48671;48.922;2.346;2022-12-01T10:30:51;156.20;138.80;130.80
62599;PMS7003;48671;48.922;2.346;2022-12-01T10:33:24;159.75;137.75;130.75
62599;PMS7003;48671;48.922;2.346;2022-12-01T10:35:52;173.80;152.80;143.40
62599;PMS7003;48671;48.922;2.346;2022-12-01T10:38:21;161.25;140.25;131.25
62599;PMS7003;48671;48.922;2.346;2022-12-01T10:40:50;199.60;174.40;159.80
62599;PMS7003;48671;48.922;2.346;2022-12-01T10:43:17;209.00;193.00;182.50
62599;PMS7003;48671;48.922;2.346;2022-12-01T10:46:07;206.20;189.40;181.60
62599;PMS7003;48671;48.922;2.346;2022-12-01T10:49:07;216.00;201.60;190.00
62599;PMS7003;48671;48.922;2.346;2022-12-01T10:51:33;214.20;196.80;185.40
62599;PMS7003;48671;48.922;2.346;2022-12-01T10:54:14;186.80;171.00;161.40
62599;PMS7003;48671;48.922;2.346;2022-12-01T10:56:41;218.40;198.40;188.00
62599;PMS7003;48671;48.922;2.346;2022-12-01T11:02:02;177.60;163.60;155.60
62599;PMS7003;48671;48.922;2.346;2022-12-01T11:12:38;196.00;180.40;175.40
62599;PMS7003;48671;48.922;2.346;2022-12-01T11:15:05;243.60;227.00;216.40
62599;PMS7003;48671;48.922;2.346;2022-12-01T11:17:41;259.40;243.20;233.20
62599;PMS7003;48671;48.922;2.346;2022-12-01T11:22:55;248.60;235.60;226.00
62599;PMS7003;48671;48.922;2.346;2022-12-01T11:28:33;239.00;222.80;213.20
62599;PMS7003;48671;48.922;2.346;2022-12-01T11:31:02;245.20;229.60;217.80
62599;PMS7003;48671;48.922;2.346;2022-12-01T11:33:31;248.00;234.60;226.00
62599;PMS7003;48671;48.922;2.346;2022-12-01T11:36:17;248.00;227.00;214.75
62599;PMS7003;48671;48.922;2.346;2022-12-01T11:38:46;213.60;201.40;190.60
62599;PMS7003;48671;48.922;2.346;2022-12-01T11:41:26;250.25;235.50;223.75
62599;PMS7003;48671;48.922;2.346;2022-12-01T11:43:55;177.75;159.00;145.75
62599;PMS7003;48671;48.922;2.346;2022-12-01T11:46:27;232.60;217.00;206.80
62599;PMS7003;48671;48.922;2.346;2022-12-01T11:48:57;244.00;227.00;215.40
62599;PMS7003;48671;48.922;2.346;2022-12-01T11:51:31;221.20;207.40;196.20
62599;PMS7003;48671;48.922;2.346;2022-12-01T11:54:21;236.20;222.40;212.80
62599;PMS7003;48671;48.922;2.346;2022-12-01T11:56:49;231.00;217.80;207.80
62599;PMS7003;48671;48.922;2.346;2022-12-01T12:09:55;280.20;270.80;259.40
62599;PMS7003;48671;48.922;2.346;2022-12-01T12:12:39;277.80;265.80;252.60
62599;PMS7003;48671;48.922;2.346;2022-12-01T12:18:28;266.00;258.50;245.50
62599;PMS7003;48671;48.922;2.346;2022-12-01T12:21:33;268.60;257.40;246.20
62599;PMS7003;48671;48.922;2.346;2022-12-01T12:37:41;252.75;243.75;228.00
62599;PMS7003;48671;48.922;2.346;2022-12-01T12:56:28;217.75;200.50;190.50
62599;PMS7003;48671;48.922;2.346;2022-12-01T12:58:56;186.50;169.25;159.00
62599;PMS7003;48671;48.922;2.346;2022-12-01T13:01:29;192.50;177.50;166.00
62599;PMS7003;48671;48.922;2.346;2022-12-01T13:06:43;184.25;168.00;156.50
62599;PMS7003;48671;48.922;2.346;2022-12-01T13:09:48;161.75;149.50;137.75
62599;PMS7003;48671;48.922;2.346;2022-12-01T13:12:09;208.50;195.00;185.00
62599;PMS7003;48671;48.922;2.346;2022-12-01T13:17:19;325.67;312.33;288.00
62599;PMS7003;48671;48.922;2.346;2022-12-01T13:19:47;285.00;276.00;237.00
62599;PMS7003;48671;48.922;2.346;2022-12-01T13:22:13;307.50;299.00;246.50
62599;PMS7003;48671;48.922;2.346;2022-12-01T13:24:41;259.75;251.25;213.25
62599;PMS7003;48671;48.922;2.346;2022-12-01T13:29:38;249.50;239.25;200.75
62599;PMS7003;48671;48.922;2.346;2022-12-01T13:32:20;237.50;227.75;188.75
62599;PMS7003;48671;48.922;2.346;2022-12-01T13:34:53;15.00;15.00;10.00
62599;PMS7003;48671;48.922;2.346;2022-12-01T13:37:34;274.00;258.33;226.33
62599;PMS7003;48671;48.922;2.346;2022-12-01T13:40:19;253.25;241.50;206.50
62599;PMS7003;48671;48.922;2.346;2022-12-01T13:45:33;222.25;218.75;180.00
62599;PMS7003;48671;48.922;2.346;2022-12-01T13:48:01;200.25;196.00;158.25
62599;PMS7003;48671;48.922;2.346;2022-12-01T13:50:51;221.25;218.25;174.50
62599;PMS7003;48671;48.922;2.346;2022-12-01T13:53:23;202.40;196.20;164.60
62599;PMS7003;48671;48.922;2.346;2022-12-01T13:56:03;163.00;149.00;134.75
62599;PMS7003;48671;48.922;2.346;2022-12-01T13:58:48;229.75;224.25;191.00
62599;PMS7003;48671;48.922;2.346;2022-12-01T14:09:05;224.80;220.20;189.40
62599;PMS7003;48671;48.922;2.346;2022-12-01T14:11:59;235.80;227.80;195.40
62599;PMS7003;48671;48.922;2.346;2022-12-01T14:14:37;225.50;224.50;188.75
62599;PMS7003;48671;48.922;2.346;2022-12-01T14:17:06;106.00;100.25;84.00
62599;PMS7003;48671;48.922;2.346;2022-12-01T14:19:50;212.40;204.60;174.60
62599;PMS7003;48671;48.922;2.346;2022-12-01T14:25:22;210.00;206.40;176.80
62599;PMS7003;48671;48.922;2.346;2022-12-01T14:27:52;205.80;197.80;168.40
62599;PMS7003;48671;48.922;2.346;2022-12-01T14:39:09;240.00;231.20;198.20
62599;PMS7003;48671;48.922;2.346;2022-12-01T14:49:17;191.80;188.20;156.60
62599;PMS7003;48671;48.922;2.346;2022-12-01T14:51:47;188.60;181.20;150.00
62599;PMS7003;48671;48.922;2.346;2022-12-01T14:54:20;181.33;173.67;145.33
62599;PMS7003;48671;48.922;2.346;2022-12-01T14:56:50;74.50;66.50;55.00
62599;PMS7003;48671;48.922;2.346;2022-12-01T14:59:19;176.00;165.75;136.00
62599;PMS7003;48671;48.922;2.346;2022-12-01T15:01:48;158.00;154.75;129.50
62599;PMS7003;48671;48.922;2.346;2022-12-01T15:04:16;169.25;166.50;137.75
62599;PMS7003;48671;48.922;2.346;2022-12-01T15:06:42;169.00;161.00;131.40
62599;PMS7003;48671;48.922;2.346;2022-12-01T15:09:15;163.50;158.25;127.25
62599;PMS7003;48671;48.922;2.346;2022-12-01T15:12:18;160.20;157.60;127.00
62599;PMS7003;48671;48.922;2.346;2022-12-01T15:14:47;169.33;164.33;135.67
62599;PMS7003;48671;48.922;2.346;2022-12-01T15:17:27;84.50;58.50;43.25
62599;PMS7003;48671;48.922;2.346;2022-12-01T15:19:52;56.75;45.00;29.25
62599;PMS7003;48671;48.922;2.346;2022-12-01T15:22:17;153.50;152.25;128.00
62599;PMS7003;48671;48.922;2.346;2022-12-01T15:24:43;165.33;161.00;132.00
62599;PMS7003;48671;48.922;2.346;2022-12-01T15:27:22;166.50;162.00;133.75
62599;PMS7003;48671;48.922;2.346;2022-12-01T15:29:53;156.50;151.75;123.50
62599;PMS7003;48671;48.922;2.346;2022-12-01T15:32:20;169.20;166.60;137.80
62599;PMS7003;48671;48.922;2.346;2022-12-01T15:34:48;161.60;157.20;130.00
62599;PMS7003;48671;48.922;2.346;2022-12-01T15:37:20;163.40;156.20;126.80
62599;PMS7003;48671;48.922;2.346;2022-12-01T15:39:49;168.20;159.20;130.00
62599;PMS7003;48671;48.922;2.346;2022-12-01T15:42:27;158.20;153.60;123.20
62599;PMS7003;48671;48.922;2.346;2022-12-01T15:47:58;157.00;151.00;118.20
62599;PMS7003;48671;48.922;2.346;2022-12-01T15:52:54;174.00;157.80;129.00
62599;PMS7003;48671;48.922;2.346;2022-12-01T15:55:26;159.20;149.20;121.20
62599;PMS7003;48671;48.922;2.346;2022-12-01T15:57:54;155.50;149.00;121.00
62599;PMS7003;48671;48.922;2.346;2022-12-01T16:00:20;153.20;145.20;114.00
62599;PMS7003;48671;48.922;2.346;2022-12-01T16:02:53;143.60;139.00;108.60
62599;PMS7003;48671;48.922;2.346;2022-12-01T16:05:22;148.60;143.20;114.20